| time (UTC) | temp F | wind direction | speed knots | gust knots | rain 1hr in | rain 24hr in | rain mn in | humidity % | barometer mb |
| 20260502152047 | 55 | 255 | 0.0 | 3.5 | 0.00 | 0.00 | 0.00 | 42 | 1021.6 |
| 20260502151554 | 54 | 267 | 0.9 | 3.5 | 0.00 | 0.00 | 0.00 | 42 | 1021.5 |
| 20260502151043 | 54 | 289 | 0.9 | 3.5 | 0.00 | 0.00 | 0.00 | 42 | 1021.5 |
| 20260502150543 | 54 | 0 | 1.7 | 4.3 | 0.00 | 0.00 | 0.00 | 40 | 1021.5 |
| 20260502130544 | 37 | 0 | 0.0 | 0.0 | 0.00 | 0.00 | 0.00 | 87 | 1021.9 |
| 20260502130110 | 36 | 0 | 0.0 | 0.0 | 0.00 | 0.00 | 0.00 | 88 | 1021.9 |
| 20260502123543 | 34 | 0 | 0.0 | 0.0 | 0.00 | 0.00 | 0.00 | 89 | 1021.7 |
| 20260502123121 | 33 | 0 | 0.0 | 0.0 | 0.00 | 0.00 | 0.00 | 89 | 1021.7 |
| 20260502122543 | 33 | 0 | 0.0 | 0.0 | 0.00 | 0.00 | 0.00 | 89 | 1021.7 |
| 20260502122044 | 33 | 0 | 0.0 | 0.0 | 0.00 | 0.00 | 0.00 | 89 | 1021.7 |
| 20260502121549 | 33 | 0 | 0.0 | 0.0 | 0.00 | 0.00 | 0.00 | 88 | 1021.6 |
| 20260502121045 | 33 | 0 | 0.0 | 0.0 | 0.00 | 0.00 | 0.00 | 88 | 1021.6 |
| 20260502120545 | 32 | 0 | 0.0 | 0.0 | 0.00 | 0.00 | 0.00 | 88 | 1021.5 |
| 20260502120109 | 32 | 0 | 0.0 | 0.0 | 0.00 | 0.00 | 0.00 | 88 | 1021.6 |
| 20260502115544 | 32 | 0 | 0.0 | 0.0 | 0.00 | 0.00 | 0.00 | 87 | 1021.6 |
| 20260502115043 | 32 | 0 | 0.0 | 0.0 | 0.00 | 0.00 | 0.00 | 87 | 1021.6 |
| 20260502114555 | 32 | 0 | 0.0 | 0.0 | 0.00 | 0.00 | 0.00 | 86 | 1021.6 |
| 20260502114042 | 32 | 0 | 0.0 | 0.0 | 0.00 | 0.00 | 0.00 | 85 | 1021.4 |
| 20260502113543 | 32 | 0 | 0.0 | 0.0 | 0.00 | 0.00 | 0.00 | 85 | 1021.4 |
| 20260502113051 | 33 | 0 | 0.0 | 0.0 | 0.00 | 0.00 | 0.00 | 85 | 1021.5 |
| 20260502112542 | 33 | 0 | 0.0 | 0.0 | 0.00 | 0.00 | 0.00 | 85 | 1021.4 |
| 20260502112044 | 33 | 0 | 0.0 | 0.0 | 0.00 | 0.00 | 0.00 | 85 | 1021.4 |
| 20260502111546 | 33 | 0 | 0.0 | 0.0 | 0.00 | 0.00 | 0.00 | 86 | 1021.3 |
| 20260502111047 | 33 | 0 | 0.0 | 0.0 | 0.00 | 0.00 | 0.00 | 86 | 1021.3 |
| 20260502110544 | 33 | 0 | 0.0 | 0.0 | 0.00 | 0.00 | 0.00 | 85 | 1021.3 |
| 20260502110052 | 33 | 0 | 0.0 | 0.0 | 0.00 | 0.00 | 0.00 | 84 | 1021.3 |
| 20260502105543 | 33 | 0 | 0.0 | 0.0 | 0.00 | 0.00 | 0.00 | 84 | 1021.3 |
| 20260502105044 | 33 | 0 | 0.0 | 0.0 | 0.00 | 0.00 | 0.00 | 84 | 1021.2 |
| 20260502104550 | 33 | 0 | 0.0 | 0.0 | 0.00 | 0.00 | 0.00 | 84 | 1021.3 |
| 20260502104044 | 33 | 0 | 0.0 | 0.0 | 0.00 | 0.00 | 0.00 | 83 | 1021.3 |
| 20260502103543 | 34 | 0 | 0.0 | 0.0 | 0.00 | 0.00 | 0.00 | 84 | 1021.2 |
| 20260502103054 | 34 | 0 | 0.0 | 0.0 | 0.00 | 0.00 | 0.00 | 84 | 1021.2 |
| 20260502102544 | 33 | 0 | 0.0 | 0.0 | 0.00 | 0.00 | 0.00 | 83 | 1021.1 |
| 20260502102043 | 34 | 0 | 0.0 | 0.0 | 0.00 | 0.00 | 0.00 | 83 | 1021.1 |
| 20260502101558 | 34 | 0 | 0.0 | 0.0 | 0.00 | 0.00 | 0.00 | 84 | 1021.0 |
| 20260502101048 | 34 | 0 | 0.0 | 0.0 | 0.00 | 0.00 | 0.00 | 84 | 1020.9 |
| 20260502100543 | 34 | 0 | 0.0 | 0.0 | 0.00 | 0.00 | 0.00 | 82 | 1020.9 |
| 20260502091043 | 36 | 0 | 0.0 | 0.0 | 0.00 | 0.00 | 0.00 | 77 | 1020.6 |
| 20260502090544 | 37 | 0 | 0.0 | 0.0 | 0.00 | 0.00 | 0.00 | 76 | 1020.7 |
| 20260502071041 | 37 | 0 | 0.0 | 0.0 | 0.00 | 0.00 | 0.00 | 72 | 1020.8 |
| 20260502070544 | 38 | 0 | 0.0 | 0.0 | 0.00 | 0.00 | 0.00 | 72 | 1020.8 |
| 20260502070052 | 38 | 0 | 0.0 | 0.0 | 0.00 | 0.00 | 0.00 | 71 | 1020.9 |
| 20260502065545 | 38 | 0 | 0.0 | 0.0 | 0.00 | 0.00 | 0.00 | 71 | 1020.9 |
| 20260502065043 | 38 | 0 | 0.0 | 0.0 | 0.00 | 0.00 | 0.00 | 71 | 1020.8 |
| 20260502064551 | 38 | 0 | 0.0 | 0.0 | 0.00 | 0.00 | 0.00 | 71 | 1020.9 |
| 20260502064043 | 38 | 0 | 0.0 | 0.0 | 0.00 | 0.00 | 0.00 | 71 | 1020.9 |
| 20260502063544 | 38 | 0 | 0.0 | 0.0 | 0.00 | 0.00 | 0.00 | 71 | 1020.9 |
| 20260502063103 | 39 | 0 | 0.0 | 0.0 | 0.00 | 0.00 | 0.00 | 69 | 1020.9 |
| 20260502062543 | 39 | 0 | 0.0 | 0.0 | 0.00 | 0.00 | 0.00 | 70 | 1020.8 |
| 20260502062048 | 38 | 0 | 0.0 | 0.0 | 0.00 | 0.00 | 0.00 | 70 | 1020.8 |
| 20260502061549 | 38 | 0 | 0.0 | 0.0 | 0.00 | 0.00 | 0.00 | 71 | 1021.0 |
| 20260502061047 | 39 | 0 | 0.0 | 0.0 | 0.00 | 0.00 | 0.00 | 71 | 1020.9 |
| 20260502060544 | 39 | 0 | 0.0 | 0.0 | 0.00 | 0.00 | 0.00 | 70 | 1020.7 |
| 20260502060053 | 39 | 0 | 0.0 | 0.0 | 0.00 | 0.00 | 0.00 | 70 | 1020.8 |
| 20260502055544 | 39 | 0 | 0.0 | 0.0 | 0.00 | 0.00 | 0.00 | 69 | 1020.8 |
| 20260502055045 | 39 | 0 | 0.0 | 0.0 | 0.00 | 0.00 | 0.00 | 68 | 1020.8 |
| 20260502054552 | 40 | 0 | 0.0 | 0.0 | 0.00 | 0.00 | 0.00 | 67 | 1020.7 |
| 20260502054045 | 40 | 0 | 0.0 | 0.0 | 0.00 | 0.00 | 0.00 | 65 | 1020.6 |
| 20260502053545 | 40 | 0 | 0.0 | 0.0 | 0.00 | 0.00 | 0.00 | 64 | 1020.6 |
| 20260502053050 | 40 | 0 | 0.0 | 0.0 | 0.00 | 0.00 | 0.00 | 64 | 1020.7 |
| 20260502052543 | 40 | 0 | 0.0 | 0.0 | 0.00 | 0.00 | 0.00 | 64 | 1020.6 |
| 20260502052045 | 41 | 0 | 0.0 | 0.9 | 0.00 | 0.00 | 0.00 | 64 | 1020.6 |
| 20260502051552 | 41 | 0 | 0.0 | 0.9 | 0.00 | 0.00 | 0.00 | 63 | 1020.6 |
| 20260502051043 | 41 | 0 | 0.0 | 0.9 | 0.00 | 0.00 | 0.00 | 64 | 1020.6 |
| 20260502050542 | 41 | 203 | 0.9 | 0.9 | 0.00 | 0.00 | 0.00 | 64 | 1020.5 |
| 20260502050050 | 41 | 219 | 0.9 | 0.9 | 0.00 | 0.00 | 0.00 | 63 | 1020.5 |
| 20260502045542 | 42 | 205 | 0.9 | 0.9 | 0.00 | 0.00 | 0.00 | 62 | 1020.5 |
| 20260502045043 | 42 | 203 | 0.9 | 1.7 | 0.00 | 0.00 | 0.00 | 61 | 1020.4 |
| 20260502044550 | 43 | 207 | 0.9 | 1.7 | 0.00 | 0.00 | 0.00 | 59 | 1020.4 |
| 20260502044044 | 44 | 217 | 0.0 | 0.0 | 0.00 | 0.00 | 0.00 | 53 | 1020.4 |
| 20260502043543 | 44 | 0 | 0.0 | 0.0 | 0.00 | 0.00 | 0.00 | 53 | 1020.4 |
| 20260502043103 | 44 | 0 | 0.0 | 0.0 | 0.00 | 0.00 | 0.00 | 53 | 1020.4 |
| 20260502042543 | 44 | 0 | 0.0 | 0.0 | 0.00 | 0.00 | 0.00 | 53 | 1020.3 |
| 20260502042042 | 44 | 0 | 0.0 | 0.0 | 0.00 | 0.00 | 0.00 | 53 | 1020.3 |
| 20260502041554 | 45 | 0 | 0.0 | 0.0 | 0.00 | 0.00 | 0.00 | 53 | 1020.3 |
| 20260502041043 | 45 | 0 | 0.0 | 0.0 | 0.00 | 0.00 | 0.00 | 52 | 1020.3 |
| 20260502040543 | 45 | 0 | 0.0 | 0.0 | 0.00 | 0.00 | 0.00 | 52 | 1020.3 |
| 20260502040103 | 45 | 0 | 0.0 | 0.0 | 0.00 | 0.00 | 0.00 | 50 | 1020.2 |
| 20260502035542 | 45 | 0 | 0.0 | 0.0 | 0.00 | 0.00 | 0.00 | 51 | 1020.1 |
| 20260502035044 | 45 | 0 | 0.0 | 0.0 | 0.00 | 0.00 | 0.00 | 51 | 1020.2 |
| 20260502034551 | 45 | 0 | 0.0 | 0.0 | 0.00 | 0.00 | 0.00 | 51 | 1020.2 |
| 20260502034042 | 45 | 0 | 0.0 | 0.0 | 0.00 | 0.00 | 0.00 | 51 | 1020.2 |
| 20260502033544 | 45 | 0 | 0.0 | 0.0 | 0.00 | 0.00 | 0.00 | 51 | 1020.1 |
| 20260502033052 | 45 | 0 | 0.0 | 0.0 | 0.00 | 0.00 | 0.00 | 51 | 1020.2 |
| 20260502032544 | 45 | 0 | 0.0 | 0.0 | 0.00 | 0.00 | 0.00 | 49 | 1020.1 |
| 20260502032044 | 45 | 0 | 0.0 | 0.0 | 0.00 | 0.00 | 0.00 | 48 | 1020.1 |
| 20260502031551 | 45 | 0 | 0.0 | 0.0 | 0.00 | 0.00 | 0.00 | 48 | 1020.1 |
| 20260502031042 | 46 | 0 | 0.0 | 0.0 | 0.00 | 0.00 | 0.00 | 47 | 1020.1 |
| 20260502030544 | 46 | 0 | 0.0 | 0.0 | 0.00 | 0.00 | 0.00 | 47 | 1020.1 |
| 20260502030049 | 46 | 0 | 0.0 | 0.0 | 0.00 | 0.00 | 0.00 | 46 | 1020.0 |
| 20260502025545 | 47 | 0 | 0.0 | 0.0 | 0.00 | 0.00 | 0.00 | 46 | 1019.9 |
| 20260502025043 | 47 | 0 | 0.0 | 0.0 | 0.00 | 0.00 | 0.00 | 45 | 1019.8 |
| 20260502024607 | 48 | 0 | 0.0 | 0.0 | 0.00 | 0.00 | 0.00 | 46 | 1019.8 |
| 20260502024043 | 48 | 0 | 0.0 | 0.0 | 0.00 | 0.00 | 0.00 | 44 | 1019.8 |
| 20260502023544 | 48 | 0 | 0.0 | 0.0 | 0.00 | 0.00 | 0.00 | 44 | 1019.8 |
| 20260502023053 | 48 | 0 | 0.0 | 0.0 | 0.00 | 0.00 | 0.00 | 45 | 1019.7 |
| 20260502022543 | 49 | 0 | 0.0 | 0.0 | 0.00 | 0.00 | 0.00 | 43 | 1019.7 |
| 20260502022043 | 49 | 0 | 0.0 | 0.0 | 0.00 | 0.00 | 0.00 | 43 | 1019.6 |
| 20260502021555 | 50 | 0 | 0.0 | 0.0 | 0.00 | 0.00 | 0.00 | 42 | 1019.5 |
| 20260502021043 | 50 | 0 | 0.0 | 1.7 | 0.00 | 0.00 | 0.00 | 41 | 1019.5 |
| 20260502020544 | 50 | 0 | 0.0 | 1.7 | 0.00 | 0.00 | 0.00 | 40 | 1019.3 |
| 20260502020052 | 50 | 0 | 0.0 | 1.7 | 0.00 | 0.00 | 0.00 | 40 | 1019.4 |
| 20260502015544 | 50 | 51 | 0.0 | 0.9 | 0.00 | 0.00 | 0.00 | 39 | 1019.3 |
| 20260502015043 | 50 | 55 | 0.0 | 1.7 | 0.00 | 0.00 | 0.00 | 40 | 1019.2 |
| 20260502014549 | 50 | 0 | 0.0 | 1.7 | 0.00 | 0.00 | 0.00 | 39 | 1019.2 |
| 20260502014044 | 51 | 75 | 0.0 | 1.7 | 0.00 | 0.00 | 0.00 | 39 | 1019.0 |
| 20260502013543 | 51 | 0 | 0.0 | 0.9 | 0.00 | 0.00 | 0.00 | 40 | 1019.1 |
| 20260502013051 | 51 | 0 | 0.0 | 0.9 | 0.00 | 0.00 | 0.00 | 39 | 1019.0 |
| 20260502012543 | 52 | 360 | 0.0 | 0.9 | 0.00 | 0.00 | 0.00 | 39 | 1018.9 |
| 20260502012043 | 52 | 0 | 0.0 | 2.6 | 0.00 | 0.00 | 0.00 | 38 | 1018.9 |
| 20260502011553 | 52 | 0 | 0.0 | 4.3 | 0.00 | 0.00 | 0.00 | 37 | 1018.8 |
| 20260502011041 | 53 | 44 | 0.0 | 4.3 | 0.00 | 0.00 | 0.00 | 38 | 1018.8 |
| 20260502010544 | 53 | 53 | 0.9 | 3.5 | 0.00 | 0.00 | 0.00 | 37 | 1018.8 |
| 20260502010100 | 53 | 55 | 0.0 | 3.5 | 0.00 | 0.00 | 0.00 | 37 | 1018.7 |
| 20260502005541 | 53 | 0 | 0.0 | 3.5 | 0.00 | 0.00 | 0.00 | 36 | 1018.7 |
| 20260502005044 | 53 | 0 | 0.9 | 7.0 | 0.00 | 0.00 | 0.00 | 35 | 1018.7 |
| 20260502004600 | 54 | 243 | 1.7 | 7.0 | 0.00 | 0.00 | 0.00 | 34 | 1018.6 |
| 20260502004045 | 54 | 161 | 0.9 | 5.2 | 0.00 | 0.00 | 0.00 | 35 | 1018.6 |
| 20260502003547 | 54 | 0 | 0.9 | 2.6 | 0.00 | 0.00 | 0.00 | 35 | 1018.5 |
| 20260502003049 | 55 | 342 | 0.0 | 6.1 | 0.00 | 0.00 | 0.00 | 34 | 1018.5 |
| 20260502002544 | 55 | 13 | 0.9 | 6.1 | 0.00 | 0.00 | 0.00 | 33 | 1018.3 |
| 20260502002044 | 55 | 39 | 0.9 | 3.5 | 0.00 | 0.00 | 0.00 | 34 | 1018.3 |
| 20260502001552 | 55 | 25 | 0.9 | 3.5 | 0.00 | 0.00 | 0.00 | 32 | 1018.3 |
| 20260502001044 | 56 | 32 | 0.9 | 7.0 | 0.00 | 0.00 | 0.00 | 32 | 1018.3 |
| 20260502000544 | 56 | 285 | 0.0 | 7.0 | 0.00 | 0.00 | 0.00 | 33 | 1018.3 |
| 20260502000053 | 56 | 67 | 1.7 | 5.2 | 0.00 | 0.00 | 0.00 | 32 | 1018.4 |
| 20260501235543 | 56 | 40 | 0.9 | 5.2 | 0.00 | 0.00 | 0.00 | 32 | 1018.2 |
| 20260501235044 | 57 | 320 | 0.9 | 5.2 | 0.00 | 0.00 | 0.00 | 32 | 1018.3 |
| 20260501234550 | 57 | 24 | 0.0 | 5.2 | 0.00 | 0.00 | 0.00 | 32 | 1018.3 |
| 20260501234041 | 57 | 0 | 0.9 | 6.1 | 0.00 | 0.00 | 0.00 | 31 | 1018.2 |
| 20260501233543 | 57 | 46 | 1.7 | 7.0 | 0.00 | 0.00 | 0.00 | 31 | 1018.2 |
| 20260501233100 | 57 | 52 | 1.7 | 7.0 | 0.00 | 0.00 | 0.00 | 31 | 1018.1 |
| 20260501232543 | 57 | 7 | 2.6 | 7.0 | 0.00 | 0.00 | 0.00 | 30 | 1018.2 |
| 20260501232047 | 58 | 321 | 0.0 | 4.3 | 0.00 | 0.00 | 0.00 | 32 | 1018.2 |
| 20260501231558 | 57 | 40 | 0.9 | 9.6 | 0.00 | 0.00 | 0.00 | 31 | 1018.1 |
| 20260501231044 | 57 | 0 | 0.9 | 9.6 | 0.00 | 0.00 | 0.00 | 30 | 1018.1 |
| 20260501230545 | 58 | 35 | 1.7 | 9.6 | 0.00 | 0.00 | 0.00 | 30 | 1018.1 |
| 20260501230059 | 58 | 50 | 1.7 | 7.0 | 0.00 | 0.00 | 0.00 | 32 | 1018.1 |
| 20260501225544 | 58 | 64 | 0.9 | 9.6 | 0.00 | 0.00 | 0.00 | 32 | 1018.1 |
| 20260501225045 | 58 | 45 | 0.9 | 9.6 | 0.00 | 0.00 | 0.00 | 30 | 1018.0 |
| 20260501224555 | 58 | 293 | 1.7 | 7.0 | 0.00 | 0.00 | 0.00 | 31 | 1018.1 |
| 20260501224044 | 58 | 0 | 0.9 | 8.7 | 0.00 | 0.00 | 0.00 | 32 | 1018.1 |
| 20260501223542 | 58 | 44 | 2.6 | 8.7 | 0.00 | 0.00 | 0.00 | 32 | 1018.2 |
| 20260501223103 | 58 | 37 | 2.6 | 7.0 | 0.00 | 0.00 | 0.00 | 34 | 1018.2 |
| 20260501222542 | 58 | 24 | 1.7 | 5.2 | 0.00 | 0.00 | 0.00 | 31 | 1018.1 |
| 20260501222044 | 58 | 281 | 2.6 | 5.2 | 0.00 | 0.00 | 0.00 | 31 | 1018.1 |
| 20260501221555 | 58 | 285 | 0.0 | 7.8 | 0.00 | 0.00 | 0.00 | 33 | 1017.9 |
| 20260501221043 | 58 | 0 | 1.7 | 8.7 | 0.00 | 0.00 | 0.00 | 31 | 1017.9 |
| 20260501220543 | 58 | 40 | 1.7 | 8.7 | 0.00 | 0.00 | 0.00 | 31 | 1017.8 |
| 20260501220052 | 58 | 350 | 0.9 | 8.7 | 0.00 | 0.00 | 0.00 | 31 | 1017.9 |
| 20260501215543 | 58 | 349 | 1.7 | 8.7 | 0.00 | 0.00 | 0.00 | 32 | 1018.0 |
| 20260501215044 | 58 | 56 | 2.6 | 6.1 | 0.00 | 0.00 | 0.00 | 30 | 1017.9 |
| 20260501214551 | 59 | 289 | 0.9 | 5.2 | 0.00 | 0.00 | 0.00 | 33 | 1017.8 |
| 20260501214043 | 58 | 32 | 0.9 | 5.2 | 0.00 | 0.00 | 0.00 | 33 | 1017.9 |
| 20260501213545 | 58 | 34 | 0.9 | 7.0 | 0.00 | 0.00 | 0.00 | 34 | 1017.9 |
| 20260501213052 | 58 | 66 | 0.9 | 7.0 | 0.00 | 0.00 | 0.00 | 32 | 1017.9 |
| 20260501212543 | 59 | 38 | 1.7 | 7.0 | 0.00 | 0.00 | 0.00 | 32 | 1017.9 |
| 20260501212045 | 58 | 41 | 0.9 | 4.3 | 0.00 | 0.00 | 0.00 | 36 | 1018.0 |
| 20260501211553 | 58 | 36 | 0.9 | 4.3 | 0.00 | 0.00 | 0.00 | 35 | 1018.1 |
| 20260501211043 | 58 | 75 | 0.9 | 7.0 | 0.00 | 0.00 | 0.00 | 35 | 1018.0 |
| 20260501210541 | 58 | 8 | 2.6 | 7.0 | 0.00 | 0.00 | 0.00 | 35 | 1018.0 |
| 20260501210058 | 58 | 17 | 1.7 | 6.1 | 0.00 | 0.00 | 0.00 | 36 | 1018.1 |
| 20260501205545 | 58 | 0 | 0.9 | 5.2 | 0.00 | 0.00 | 0.00 | 36 | 1018.0 |
| 20260501205042 | 57 | 44 | 2.6 | 6.1 | 0.00 | 0.00 | 0.00 | 38 | 1018.2 |
| 20260501204553 | 57 | 27 | 0.9 | 6.1 | 0.00 | 0.00 | 0.00 | 36 | 1018.2 |
| 20260501204042 | 58 | 271 | 1.7 | 6.1 | 0.00 | 0.00 | 0.00 | 35 | 1018.3 |
| 20260501203544 | 58 | 30 | 1.7 | 6.1 | 0.00 | 0.00 | 0.00 | 36 | 1018.2 |
| 20260501203054 | 58 | 251 | 2.6 | 6.1 | 0.00 | 0.00 | 0.00 | 37 | 1018.3 |
| 20260501202544 | 58 | 264 | 1.7 | 11.3 | 0.00 | 0.00 | 0.00 | 37 | 1018.3 |
| 20260501202041 | 58 | 262 | 2.6 | 11.3 | 0.00 | 0.00 | 0.00 | 40 | 1018.4 |
| 20260501201552 | 58 | 1 | 1.7 | 11.3 | 0.00 | 0.00 | 0.00 | 38 | 1018.4 |
| 20260501201044 | 58 | 16 | 1.7 | 11.3 | 0.00 | 0.00 | 0.00 | 39 | 1018.5 |
| 20260501200547 | 59 | 41 | 2.6 | 11.3 | 0.00 | 0.00 | 0.00 | 43 | 1018.5 |
| 20260501200056 | 58 | 283 | 2.6 | 9.6 | 0.00 | 0.00 | 0.00 | 39 | 1018.4 |
| 20260501195546 | 58 | 16 | 1.7 | 9.6 | 0.00 | 0.00 | 0.00 | 38 | 1018.5 |
| 20260501195042 | 58 | 67 | 1.7 | 7.0 | 0.00 | 0.00 | 0.00 | 40 | 1018.5 |
| 20260501194558 | 58 | 63 | 1.7 | 7.8 | 0.00 | 0.00 | 0.00 | 40 | 1018.4 |
| 20260501194043 | 57 | 28 | 1.7 | 7.8 | 0.00 | 0.00 | 0.00 | 39 | 1018.5 |
| 20260501193543 | 57 | 55 | 1.7 | 7.8 | 0.00 | 0.00 | 0.00 | 41 | 1018.4 |
| 20260501193103 | 58 | 72 | 1.7 | 5.2 | 0.00 | 0.00 | 0.00 | 39 | 1018.3 |
| 20260501192543 | 58 | 330 | 1.7 | 6.1 | 0.00 | 0.00 | 0.00 | 40 | 1018.3 |
| 20260501192041 | 56 | 268 | 0.9 | 7.0 | 0.00 | 0.00 | 0.00 | 45 | 1018.4 |
| 20260501191553 | 56 | 242 | 2.6 | 7.0 | 0.00 | 0.00 | 0.00 | 42 | 1018.5 |
| 20260501191041 | 57 | 51 | 2.6 | 6.1 | 0.00 | 0.00 | 0.00 | 42 | 1018.4 |
| 20260501190544 | 57 | 36 | 2.6 | 8.7 | 0.00 | 0.00 | 0.00 | 40 | 1018.5 |
| 20260501190128 | 57 | 299 | 1.7 | 8.7 | 0.00 | 0.00 | 0.00 | 44 | 1018.6 |
| 20260501185541 | 56 | 60 | 0.9 | 5.2 | 0.00 | 0.00 | 0.00 | 43 | 1018.5 |
| 20260501185042 | 56 | 40 | 1.7 | 7.0 | 0.00 | 0.00 | 0.00 | 45 | 1018.6 |
| 20260501184607 | 56 | 305 | 0.0 | 7.0 | 0.00 | 0.00 | 0.00 | 47 | 1018.5 |
| 20260501184044 | 56 | 359 | 1.7 | 7.0 | 0.00 | 0.00 | 0.00 | 45 | 1018.5 |
| 20260501183545 | 55 | 56 | 1.7 | 6.1 | 0.00 | 0.00 | 0.00 | 44 | 1018.6 |
| 20260501183053 | 55 | 342 | 1.7 | 6.1 | 0.00 | 0.00 | 0.00 | 44 | 1018.6 |
| 20260501182542 | 56 | 39 | 0.9 | 6.1 | 0.00 | 0.00 | 0.00 | 45 | 1018.6 |
| 20260501182044 | 56 | 36 | 0.9 | 6.1 | 0.00 | 0.00 | 0.00 | 46 | 1018.6 |
| 20260501181552 | 56 | 46 | 3.5 | 6.1 | 0.00 | 0.00 | 0.00 | 43 | 1018.7 |
| 20260501181041 | 57 | 286 | 1.7 | 6.1 | 0.00 | 0.00 | 0.00 | 46 | 1018.7 |
| 20260501180543 | 56 | 234 | 2.6 | 7.8 | 0.00 | 0.00 | 0.00 | 45 | 1018.7 |
| 20260501180110 | 57 | 32 | 1.7 | 7.8 | 0.00 | 0.00 | 0.00 | 45 | 1018.8 |
| 20260501175544 | 56 | 43 | 1.7 | 9.6 | 0.00 | 0.00 | 0.00 | 49 | 1018.9 |
| 20260501175041 | 55 | 46 | 3.5 | 9.6 | 0.00 | 0.00 | 0.00 | 48 | 1018.7 |
| 20260501174550 | 55 | 44 | 2.6 | 11.3 | 0.00 | 0.00 | 0.00 | 48 | 1018.8 |
| 20260501174043 | 56 | 17 | 2.6 | 11.3 | 0.00 | 0.00 | 0.00 | 49 | 1018.9 |
| 20260501173541 | 56 | 276 | 1.7 | 6.1 | 0.00 | 0.00 | 0.00 | 47 | 1018.9 |
| 20260501173049 | 56 | 67 | 2.6 | 6.1 | 0.00 | 0.00 | 0.00 | 49 | 1018.9 |
| 20260501172544 | 56 | 351 | 0.9 | 5.2 | 0.00 | 0.00 | 0.00 | 48 | 1018.9 |
| 20260501172045 | 55 | 65 | 1.7 | 7.0 | 0.00 | 0.00 | 0.00 | 52 | 1018.9 |
| 20260501171549 | 54 | 48 | 2.6 | 7.0 | 0.00 | 0.00 | 0.00 | 53 | 1018.9 |
| 20260501171044 | 54 | 58 | 2.6 | 7.0 | 0.00 | 0.00 | 0.00 | 51 | 1018.9 |
| 20260501170547 | 55 | 309 | 1.7 | 6.1 | 0.00 | 0.00 | 0.00 | 52 | 1018.8 |
| 20260501170054 | 54 | 71 | 1.7 | 11.3 | 0.00 | 0.00 | 0.00 | 51 | 1018.9 |
| 20260501165544 | 54 | 15 | 3.5 | 11.3 | 0.00 | 0.00 | 0.00 | 50 | 1018.9 |
| 20260501165044 | 55 | 8 | 1.7 | 7.0 | 0.00 | 0.00 | 0.00 | 54 | 1018.8 |
| 20260501164552 | 54 | 13 | 1.7 | 7.0 | 0.00 | 0.00 | 0.00 | 52 | 1018.8 |
| 20260501164044 | 54 | 37 | 2.6 | 11.3 | 0.00 | 0.00 | 0.00 | 53 | 1018.8 |
| 20260501163543 | 54 | 59 | 1.7 | 11.3 | 0.00 | 0.00 | 0.00 | 54 | 1018.8 |
| 20260501163056 | 54 | 70 | 2.6 | 7.8 | 0.00 | 0.00 | 0.00 | 51 | 1018.8 |
| 20260501162544 | 54 | 20 | 1.7 | 7.0 | 0.00 | 0.00 | 0.00 | 53 | 1018.8 |
| 20260501162043 | 53 | 41 | 1.7 | 7.0 | 0.00 | 0.00 | 0.00 | 54 | 1018.7 |
| 20260501161556 | 53 | 16 | 0.9 | 6.1 | 0.00 | 0.00 | 0.00 | 58 | 1018.7 |
| 20260501161044 | 53 | 329 | 2.6 | 9.6 | 0.00 | 0.00 | 0.00 | 57 | 1018.8 |
| 20260501160541 | 53 | 48 | 0.9 | 9.6 | 0.00 | 0.00 | 0.00 | 58 | 1018.7 |
| 20260501155544 | 53 | 0 | 0.9 | 7.8 | 0.00 | 0.00 | 0.00 | 57 | 1018.6 |
| 20260501155044 | 52 | 227 | 1.7 | 9.6 | 0.00 | 0.00 | 0.00 | 57 | 1018.6 |
| 20260501154601 | 52 | 294 | 1.7 | 9.6 | 0.00 | 0.00 | 0.00 | 58 | 1018.6 |
| 20260501154044 | 52 | 287 | 2.6 | 9.6 | 0.00 | 0.00 | 0.00 | 58 | 1018.6 |
| 20260501153544 | 51 | 276 | 1.7 | 7.0 | 0.00 | 0.00 | 0.00 | 58 | 1018.6 |
| 20260501153054 | 51 | 54 | 0.9 | 7.0 | 0.00 | 0.00 | 0.00 | 59 | 1018.6 |
| 20260501152544 | 51 | 222 | 2.6 | 7.0 | 0.00 | 0.00 | 0.00 | 59 | 1018.5 |